createdAt,value
2019-04-29T00:00:21.934Z,915.64
2019-04-29T00:01:21.923Z,915.73
2019-04-29T00:02:21.943Z,915.43
2019-04-29T00:03:21.953Z,915.17
2019-04-29T00:04:21.945Z,914.87
2019-04-29T00:05:21.952Z,914.66
2019-04-29T00:06:21.929Z,914.67
2019-04-29T00:07:21.946Z,913.91
2019-04-29T00:08:21.945Z,914.21
2019-04-29T00:09:21.928Z,914.27
2019-04-29T00:10:21.983Z,913.68
2019-04-29T00:11:21.969Z,913.65
2019-04-29T00:12:21.947Z,913.66
2019-04-29T00:13:21.942Z,913.7
2019-04-29T00:14:21.960Z,913.28
2019-04-29T00:15:21.947Z,913.44
2019-04-29T00:16:21.988Z,913.08
2019-04-29T00:17:21.942Z,913.48
2019-04-29T00:18:21.989Z,912.81
2019-04-29T00:19:21.968Z,912.73
2019-04-29T00:20:21.979Z,911.62
2019-04-29T00:21:21.956Z,910.9
2019-04-29T00:22:21.971Z,910.3
2019-04-29T00:23:21.990Z,909.06
2019-04-29T00:24:21.957Z,908.64
2019-04-29T00:25:21.983Z,908.15
2019-04-29T00:26:21.956Z,907.46
2019-04-29T00:27:21.956Z,907.47
2019-04-29T00:28:21.982Z,907.32
2019-04-29T00:29:21.975Z,906.3
2019-04-29T00:30:21.981Z,906.46
2019-04-29T00:31:21.964Z,905.69
2019-04-29T00:32:22.041Z,905.61
2019-04-29T00:33:21.976Z,904.74
2019-04-29T00:34:22.012Z,904.81
2019-04-29T00:35:22.132Z,904.41
2019-04-29T00:36:21.995Z,904.37
2019-04-29T00:37:21.987Z,903.85
2019-04-29T00:38:22.010Z,903.55
2019-04-29T00:39:21.981Z,902.92
2019-04-29T00:40:21.986Z,901.9
2019-04-29T00:41:22.010Z,901.21
2019-04-29T00:42:22.013Z,900.63
2019-04-29T00:43:21.977Z,899.98
2019-04-29T00:44:22.028Z,899.68
2019-04-29T00:45:22.013Z,899.25
2019-04-29T00:46:22.022Z,899.05
2019-04-29T00:47:22.013Z,898.6
2019-04-29T00:48:22.011Z,897.85
2019-04-29T00:49:22.352Z,895.95
2019-04-29T00:50:22.489Z,894.32
2019-04-29T00:51:22.447Z,893.62
2019-04-29T00:52:22.397Z,892.82
2019-04-29T00:53:22.545Z,891.85
2019-04-29T00:54:22.427Z,891.49
2019-04-29T00:55:22.375Z,891
2019-04-29T00:56:22.541Z,890.61
2019-04-29T00:57:22.474Z,890.29
2019-04-29T00:58:22.508Z,889.48
2019-04-29T00:59:22.438Z,888.54
2019-04-29T01:00:22.241Z,888.18
2019-04-29T01:01:22.220Z,887.14
2019-04-29T01:02:22.254Z,886.28
2019-04-29T01:03:22.241Z,885.44
2019-04-29T01:04:22.394Z,884.37
2019-04-29T01:05:23.467Z,883.61
2019-04-29T01:06:22.514Z,883.01
2019-04-29T01:07:22.622Z,882.28
2019-04-29T01:08:22.195Z,881.41
2019-04-29T01:09:22.017Z,880.88
2019-04-29T01:10:22.022Z,879.7
2019-04-29T01:11:22.026Z,878.24
2019-04-29T01:12:22.082Z,877.4
2019-04-29T01:13:22.059Z,877.28
2019-04-29T01:14:22.072Z,875.64
2019-04-29T01:15:22.032Z,874.55
2019-04-29T01:16:22.047Z,873.76
2019-04-29T01:17:22.024Z,873.5
2019-04-29T01:18:22.031Z,872.8
2019-04-29T01:19:22.046Z,872.23
2019-04-29T01:20:22.026Z,872.41
2019-04-29T01:21:22.034Z,872.24
2019-04-29T01:22:22.040Z,871.83
2019-04-29T01:23:22.045Z,871.86
2019-04-29T01:24:22.037Z,872.16
2019-04-29T01:25:22.039Z,871.06
2019-04-29T01:26:22.065Z,870.41
2019-04-29T01:27:22.073Z,870.45
2019-04-29T01:28:22.045Z,869.76
2019-04-29T01:29:22.064Z,869.78
2019-04-29T01:30:22.072Z,869.48
2019-04-29T01:31:22.083Z,869.47
2019-04-29T01:32:22.071Z,868.69
2019-04-29T01:33:22.074Z,868.74
2019-04-29T01:34:22.079Z,867.85
2019-04-29T01:35:22.051Z,868.15
2019-04-29T01:36:22.076Z,868.21
2019-04-29T01:37:22.077Z,866.87
2019-04-29T01:38:22.073Z,865.84
2019-04-29T01:39:22.094Z,864.93
2019-04-29T01:40:22.092Z,864.5
2019-04-29T01:41:22.083Z,864.41
2019-04-29T01:42:22.090Z,863.98
2019-04-29T01:43:22.095Z,863.74
2019-04-29T01:44:22.088Z,862.54
2019-04-29T01:45:22.114Z,860.28
2019-04-29T01:46:22.096Z,859.27
2019-04-29T01:47:22.086Z,857.79
2019-04-29T01:48:22.070Z,857.25
2019-04-29T01:49:22.110Z,856.56
2019-04-29T01:50:22.119Z,855.66
2019-04-29T01:51:22.110Z,854.85
2019-04-29T01:52:22.081Z,853.93
2019-04-29T01:53:22.092Z,853.55
2019-04-29T01:54:22.135Z,853.09
2019-04-29T01:55:22.116Z,852.9
2019-04-29T01:56:22.084Z,852.62
2019-04-29T01:57:22.094Z,852.15
2019-04-29T01:58:22.476Z,851.63
2019-04-29T01:59:22.105Z,851.39
2019-04-29T02:00:22.111Z,850.74
2019-04-29T02:01:22.116Z,850.52
2019-04-29T02:02:22.107Z,850.45
2019-04-29T02:03:22.129Z,850.57
2019-04-29T02:04:22.095Z,850.55
2019-04-29T02:05:22.103Z,850.96
2019-04-29T02:06:22.146Z,851.34
2019-04-29T02:07:22.129Z,851.73
2019-04-29T02:08:22.128Z,851.55
2019-04-29T02:09:22.131Z,851.41
2019-04-29T02:10:22.135Z,851.59
2019-04-29T02:11:22.126Z,850.83
2019-04-29T02:12:22.129Z,849.93
2019-04-29T02:13:22.137Z,848.97
2019-04-29T02:14:22.141Z,849.02
2019-04-29T02:15:22.134Z,848.25
2019-04-29T02:16:22.131Z,847.87
2019-04-29T02:17:22.139Z,847.03
2019-04-29T02:18:22.150Z,846.05
2019-04-29T02:19:22.122Z,844.7
2019-04-29T02:20:22.142Z,843.02
2019-04-29T02:21:22.129Z,841.82
2019-04-29T02:22:22.145Z,841.37
2019-04-29T02:23:22.140Z,841.4
2019-04-29T02:24:22.147Z,841.13
2019-04-29T02:25:22.141Z,840.53
2019-04-29T02:26:22.137Z,840.3
2019-04-29T02:27:22.144Z,839.11
2019-04-29T02:28:22.213Z,837.9
2019-04-29T02:29:22.264Z,837.27
2019-04-29T02:30:22.150Z,837.46
2019-04-29T02:31:22.133Z,837.18
2019-04-29T02:32:22.138Z,837.48
2019-04-29T02:33:22.164Z,836.61
2019-04-29T02:34:22.168Z,836.51
2019-04-29T02:35:22.142Z,836.34
2019-04-29T02:36:22.183Z,836.17
2019-04-29T02:37:22.169Z,835.87
2019-04-29T02:38:22.153Z,835.65
2019-04-29T02:39:22.148Z,835.25
2019-04-29T02:40:22.173Z,835.35
2019-04-29T02:41:22.158Z,835.13
2019-04-29T02:42:22.143Z,834.94
2019-04-29T02:43:22.159Z,835.61
2019-04-29T02:44:22.155Z,835.76
2019-04-29T02:45:22.188Z,835.92
2019-04-29T02:46:22.176Z,836.35
2019-04-29T02:47:22.178Z,836.05
2019-04-29T02:48:22.185Z,835.43
2019-04-29T02:49:22.189Z,834.31
2019-04-29T02:50:22.192Z,833.5
2019-04-29T02:51:22.178Z,833.34
2019-04-29T02:52:22.170Z,833.02
2019-04-29T02:53:22.195Z,833.16
2019-04-29T02:54:22.211Z,833.13
2019-04-29T02:55:22.190Z,832.66
2019-04-29T02:56:22.191Z,832.39
2019-04-29T02:57:22.201Z,830.81
2019-04-29T02:58:22.178Z,830.72
2019-04-29T02:59:22.181Z,830.02
2019-04-29T03:00:22.195Z,828.71
2019-04-29T03:01:22.183Z,828.71
2019-04-29T03:02:22.210Z,827.93
2019-04-29T03:03:22.193Z,827.13
2019-04-29T03:04:22.185Z,825.48
2019-04-29T03:05:22.208Z,824.64
2019-04-29T03:06:22.202Z,823.32
2019-04-29T03:07:22.210Z,822.08
2019-04-29T03:08:22.189Z,821.1
2019-04-29T03:09:22.316Z,819.77
2019-04-29T03:10:22.183Z,819.05
2019-04-29T03:11:22.192Z,819.05
2019-04-29T03:12:22.208Z,818.91
2019-04-29T03:13:22.209Z,819.12
2019-04-29T03:14:22.271Z,819.56
2019-04-29T03:15:22.214Z,819.8
2019-04-29T03:16:22.204Z,820.47
2019-04-29T03:17:22.214Z,820.77
2019-04-29T03:18:22.196Z,820.94
2019-04-29T03:19:22.231Z,820.91
2019-04-29T03:20:22.219Z,821.12
2019-04-29T03:21:22.244Z,820.44
2019-04-29T03:22:22.497Z,820.01
2019-04-29T03:23:22.216Z,819.93
2019-04-29T03:24:22.224Z,820.04
2019-04-29T03:25:22.221Z,820.65
2019-04-29T03:26:22.213Z,820.57
2019-04-29T03:27:22.244Z,820.65
2019-04-29T03:28:22.263Z,821.74
2019-04-29T03:29:22.330Z,821.72
2019-04-29T03:30:22.246Z,822.19
2019-04-29T03:31:22.250Z,822.2
2019-04-29T03:32:22.236Z,822.05
2019-04-29T03:33:22.218Z,821.32
2019-04-29T03:34:22.246Z,821.37
2019-04-29T03:35:22.231Z,820.46
2019-04-29T03:36:22.239Z,820.05
2019-04-29T03:37:22.242Z,819.79
2019-04-29T03:38:22.247Z,819.92
2019-04-29T03:39:22.230Z,820.16
2019-04-29T03:40:22.243Z,820.35
2019-04-29T03:41:22.252Z,820.05
2019-04-29T03:42:22.240Z,819.49
2019-04-29T03:43:22.282Z,818.68
2019-04-29T03:49:22.358Z,812.13
2019-04-29T03:50:22.329Z,811.43
2019-04-29T03:51:22.358Z,811.03
2019-04-29T03:52:22.360Z,811.48
2019-04-29T03:53:22.329Z,811.51
2019-04-29T03:54:22.335Z,812.79
2019-04-29T03:55:37.945Z,812.66
2019-04-29T03:56:22.345Z,812.49
2019-04-29T03:57:22.314Z,812.75
2019-04-29T03:58:22.320Z,812.21
2019-04-29T03:59:22.328Z,810.78
2019-04-29T04:00:22.497Z,810.3
2019-04-29T04:01:22.427Z,808.97
2019-04-29T04:02:22.339Z,807.98
2019-04-29T04:03:22.386Z,807.27
2019-04-29T04:04:22.520Z,806.67
2019-04-29T04:05:22.444Z,805.78
2019-04-29T04:06:22.409Z,805.87
2019-04-29T04:07:22.350Z,804.55
2019-04-29T04:08:22.363Z,803.92
2019-04-29T04:09:22.354Z,803.45
2019-04-29T04:10:22.393Z,801.98
2019-04-29T04:11:22.859Z,801.31
2019-04-29T04:12:22.354Z,800.44
2019-04-29T04:13:22.336Z,800.37
2019-04-29T04:14:22.369Z,800.61
2019-04-29T04:15:22.389Z,799.49
2019-04-29T04:16:22.335Z,798.91
2019-04-29T04:17:22.371Z,797.44
2019-04-29T04:18:22.925Z,795.85
2019-04-29T04:19:22.378Z,795.16
2019-04-29T04:20:22.364Z,794.73
2019-04-29T04:21:22.349Z,794.42
2019-04-29T04:22:22.918Z,794.15
2019-04-29T04:23:22.351Z,794.49
2019-04-29T04:24:22.352Z,794.18
2019-04-29T04:25:22.428Z,794.68
2019-04-29T04:26:22.380Z,794.4
2019-04-29T04:27:22.367Z,794.14
2019-04-29T04:28:22.372Z,793.5
2019-04-29T04:29:22.401Z,793.16
2019-04-29T04:30:22.387Z,792.61
2019-04-29T04:31:22.354Z,792.88
2019-04-29T04:32:22.366Z,792.73
2019-04-29T04:33:22.391Z,792.99
2019-04-29T04:34:22.397Z,792.82
2019-04-29T04:35:22.380Z,793.96
2019-04-29T04:36:22.410Z,793.33
2019-04-29T04:37:22.421Z,794.25
2019-04-29T04:38:22.362Z,794.84
2019-04-29T04:39:22.367Z,795.85
2019-04-29T04:40:22.371Z,796.95
2019-04-29T04:41:22.411Z,797.55
2019-04-29T04:42:22.397Z,798.87
2019-04-29T04:43:22.392Z,799.91
2019-04-29T04:44:22.565Z,801.83
2019-04-29T04:45:22.427Z,802.77
2019-04-29T04:46:22.413Z,803.43
2019-04-29T04:47:22.403Z,803.71
2019-04-29T04:48:22.414Z,804.43
2019-04-29T04:49:22.410Z,804.92
2019-04-29T04:50:22.376Z,804.83
2019-04-29T04:51:22.403Z,805.11
2019-04-29T04:52:22.451Z,805.31
2019-04-29T04:53:22.414Z,804.67
2019-04-29T04:54:22.385Z,806.14
2019-04-29T04:55:22.412Z,806.42
2019-04-29T04:56:22.395Z,807.61
2019-04-29T04:57:22.403Z,807.76
2019-04-29T04:58:22.432Z,809.34
2019-04-29T04:59:22.418Z,810.56
2019-04-29T05:00:22.402Z,812.2
2019-04-29T05:01:22.414Z,813.66
2019-04-29T05:02:22.478Z,815.12
2019-04-29T05:03:22.419Z,816.37
2019-04-29T05:04:22.412Z,817.84
2019-04-29T05:05:22.396Z,819.49
2019-04-29T05:06:22.417Z,820.67
2019-04-29T05:07:22.423Z,822.08
2019-04-29T05:08:22.427Z,823.47
2019-04-29T05:09:22.415Z,824.9
2019-04-29T05:10:22.422Z,826.63
2019-04-29T05:11:22.409Z,827.75
2019-04-29T05:12:22.436Z,827.52
2019-04-29T05:13:28.084Z,829.52
2019-04-29T05:14:22.408Z,830.58
2019-04-29T05:15:22.456Z,831.69
2019-04-29T05:16:22.484Z,832.76
2019-04-29T05:17:22.413Z,833.77
2019-04-29T05:18:22.414Z,834.88
2019-04-29T05:19:22.489Z,836.43
2019-04-29T05:20:22.435Z,838.06
2019-04-29T05:21:22.441Z,839.07
2019-04-29T05:22:22.447Z,839.32
2019-04-29T05:23:22.448Z,840.44
2019-04-29T05:24:22.437Z,841.97
2019-04-29T05:25:22.445Z,842.53
2019-04-29T05:26:22.452Z,843.34
2019-04-29T05:30:50.685Z,846.8
2019-04-29T05:31:50.699Z,847.53
2019-04-29T05:32:50.699Z,848.73
2019-04-29T05:33:50.676Z,849.35
2019-04-29T05:34:50.690Z,850.45
2019-04-29T05:35:50.693Z,851.59
2019-04-29T05:36:50.656Z,852.95
2019-04-29T05:37:50.709Z,854.3
2019-04-29T05:38:50.672Z,856.81
2019-04-29T05:39:50.715Z,858.03
2019-04-29T05:40:50.659Z,859.53
2019-04-29T05:41:50.686Z,861.12
2019-04-29T05:42:52.471Z,862.58
2019-04-29T05:43:50.663Z,864.87
2019-04-29T05:44:50.704Z,866.36
2019-04-29T05:45:50.679Z,867.93
2019-04-29T05:46:50.771Z,869.23
2019-04-29T05:47:52.221Z,870.14
2019-04-29T05:48:50.698Z,871.2
2019-04-29T05:49:50.716Z,872.29
2019-04-29T05:50:52.023Z,873.13
2019-04-29T05:51:50.692Z,874.74
2019-04-29T05:52:50.714Z,876.04
2019-04-29T05:53:54.792Z,877.59
2019-04-29T05:54:50.748Z,879.41
2019-04-29T05:55:52.497Z,880.43
2019-04-29T05:56:50.701Z,881.66
2019-04-29T05:57:50.705Z,883.3
2019-04-29T05:58:50.735Z,884.42
2019-04-29T05:59:50.813Z,885.93
2019-04-29T06:00:50.690Z,887.36
2019-04-29T06:01:50.693Z,888.61
2019-04-29T06:02:50.724Z,890.28
2019-04-29T06:03:50.729Z,891.17
2019-04-29T06:04:52.282Z,891.78
2019-04-29T06:05:50.720Z,893.1
2019-04-29T06:06:50.707Z,894.15
2019-04-29T06:07:51.674Z,895.6
2019-04-29T06:08:50.717Z,897.14
2019-04-29T06:09:50.729Z,898.48
2019-04-29T06:10:50.710Z,899.61
2019-04-29T06:11:50.737Z,900.2
2019-04-29T06:12:50.705Z,901.16
2019-04-29T06:13:50.733Z,902.54
2019-04-29T06:14:50.720Z,903.09
2019-04-29T06:15:50.734Z,904.14
2019-04-29T06:16:52.794Z,904.77
2019-04-29T06:17:50.782Z,905.16
2019-04-29T06:18:59.284Z,906.24
2019-04-29T06:19:50.732Z,906.75
2019-04-29T06:20:50.739Z,906.46
2019-04-29T06:21:50.750Z,906.74
2019-04-29T06:22:50.753Z,907.4
2019-04-29T06:23:50.759Z,908.3
2019-04-29T06:24:50.748Z,908.86
2019-04-29T06:25:50.732Z,910.23
2019-04-29T06:26:50.764Z,911.1
2019-04-29T06:27:50.746Z,912.18
2019-04-29T06:28:50.733Z,913.05
2019-04-29T06:29:50.779Z,914.13
2019-04-29T06:30:51.935Z,914.94
2019-04-29T06:31:50.796Z,916.41
2019-04-29T06:32:50.778Z,917.28
2019-04-29T06:33:50.768Z,918.34
2019-04-29T06:34:50.770Z,918.97
2019-04-29T06:35:50.755Z,918.58
2019-04-29T06:36:50.768Z,918.93
2019-04-29T06:37:50.779Z,919.11
2019-04-29T06:38:50.757Z,919.59
2019-04-29T06:39:50.769Z,919.59
2019-04-29T06:40:50.771Z,919.96
2019-04-29T06:41:50.753Z,920.92
2019-04-29T06:42:53.301Z,921.34
2019-04-29T06:43:53.130Z,922.01
2019-04-29T06:44:50.837Z,922.72
2019-04-29T06:45:50.821Z,923.39
2019-04-29T06:46:54.397Z,924.27
2019-04-29T06:47:50.794Z,925.17
2019-04-29T06:48:50.770Z,926.01
2019-04-29T06:49:50.799Z,927.09
2019-04-29T06:50:50.766Z,928.08
2019-04-29T06:51:50.776Z,929.27
2019-04-29T06:52:50.779Z,930.13
2019-04-29T06:53:50.765Z,931.6
2019-04-29T06:54:50.772Z,932.77
2019-04-29T06:55:50.797Z,933.78
2019-04-29T06:56:50.801Z,935.25
2019-04-29T06:57:50.771Z,935.76
2019-04-29T06:58:50.800Z,935.83
2019-04-29T06:59:50.803Z,937.35
2019-04-29T07:00:51.186Z,937.83
2019-04-29T07:01:50.775Z,938.24
2019-04-29T07:02:51.065Z,938.44
2019-04-29T07:03:50.790Z,939.22
2019-04-29T07:04:51.145Z,940.24
2019-04-29T07:05:51.567Z,941.39
2019-04-29T07:06:57.389Z,941.86
2019-04-29T07:07:50.813Z,942.6
2019-04-29T07:08:50.782Z,943.89
2019-04-29T07:09:50.810Z,944.96
2019-04-29T07:10:50.798Z,945.04
2019-04-29T07:11:50.806Z,946.09
2019-04-29T07:12:50.834Z,946.89
2019-04-29T07:13:53.387Z,948.01
2019-04-29T07:14:50.802Z,948.77
2019-04-29T07:15:50.826Z,949.66
2019-04-29T07:16:50.837Z,951.46
2019-04-29T07:17:51.678Z,951.94
2019-04-29T07:18:53.522Z,953.8
2019-04-29T07:19:50.842Z,954.92
2019-04-29T07:20:50.845Z,956.42
2019-04-29T07:21:53.291Z,957.66
2019-04-29T07:22:50.843Z,958.38
2019-04-29T07:23:50.843Z,959.51
2019-04-29T07:24:50.835Z,960.11
2019-04-29T07:25:50.824Z,960.67
2019-04-29T07:26:50.846Z,960.68
2019-04-29T07:27:50.830Z,961.26
2019-04-29T07:28:58.116Z,960.76
2019-04-29T07:29:50.862Z,961.62
2019-04-29T07:31:00.862Z,962.61
2019-04-29T07:31:50.841Z,963.52
2019-04-29T07:32:50.850Z,965.08
2019-04-29T07:33:53.523Z,966.67
2019-04-29T07:34:50.844Z,967.52
2019-04-29T07:35:50.840Z,968.18
2019-04-29T07:36:53.135Z,967.96
2019-04-29T07:37:50.838Z,968.27
2019-04-29T07:38:52.451Z,968.33
2019-04-29T07:39:50.831Z,967.98
2019-04-29T07:40:50.863Z,968.24
2019-04-29T07:41:53.667Z,968.77
2019-04-29T07:42:50.850Z,968.87
2019-04-29T07:43:50.859Z,969.42
2019-04-29T07:44:52.669Z,969.76
2019-04-29T07:45:50.845Z,971.05
2019-04-29T07:46:56.547Z,972.51
2019-04-29T07:47:56.449Z,974.1
2019-04-29T07:49:01.076Z,976.36
2019-04-29T07:49:51.352Z,978.13
2019-04-29T07:50:51.035Z,980.26
2019-04-29T07:51:50.854Z,981.55
2019-04-29T07:52:51.067Z,982.97
2019-04-29T07:53:50.880Z,984.25
2019-04-29T07:54:55.014Z,985.79
2019-04-29T07:55:50.881Z,986.51
2019-04-29T07:56:50.871Z,988.22
2019-04-29T07:57:52.095Z,989.13
2019-04-29T07:58:50.866Z,990.86
2019-04-29T07:59:50.867Z,992.03
2019-04-29T08:00:50.898Z,993.65
2019-04-29T08:01:50.864Z,995.13
2019-04-29T08:02:50.896Z,996.34
2019-04-29T08:03:50.884Z,997.69
2019-04-29T08:04:50.901Z,998.85
2019-04-29T08:05:50.908Z,999.5
2019-04-29T08:06:50.874Z,1000.43
2019-04-29T08:07:50.900Z,1001.29
2019-04-29T08:08:54.906Z,1002.62
2019-04-29T08:09:50.903Z,1003.46
2019-04-29T08:10:55.857Z,1004.47
2019-04-29T08:11:50.885Z,1005.59
2019-04-29T08:12:50.922Z,1006.42
2019-04-29T08:13:50.920Z,1007.68
2019-04-29T08:14:53.267Z,1008.23
2019-04-29T08:15:50.914Z,1009.22
2019-04-29T08:16:50.917Z,1010.09
2019-04-29T08:17:51.469Z,1010.82
2019-04-29T08:18:53.432Z,1011.17
2019-04-29T08:19:50.911Z,1012.12
2019-04-29T08:20:50.930Z,1012.94
2019-04-29T08:21:51.311Z,1014.1
2019-04-29T08:22:50.899Z,1015.37
2019-04-29T08:23:50.946Z,1016.48
2019-04-29T08:24:52.146Z,1017.47
2019-04-29T08:25:51.166Z,1018.91
2019-04-29T08:26:50.934Z,1020.19
2019-04-29T08:27:50.912Z,1021.19
2019-04-29T08:28:52.423Z,1021.9
2019-04-29T08:29:50.934Z,1022.43
2019-04-29T08:30:50.933Z,1023.08
2019-04-29T08:31:51.749Z,1023.77
2019-04-29T08:32:50.924Z,1024.08
2019-04-29T08:33:50.998Z,1024.09
2019-04-29T08:34:53.550Z,1024.2
2019-04-29T08:35:50.944Z,1024.13
2019-04-29T08:36:50.932Z,1024.65
2019-04-29T08:37:51.089Z,1024.81
2019-04-29T08:38:50.973Z,1025.53
2019-04-29T08:40:03.669Z,1025.5
2019-04-29T08:40:51.715Z,1025.88
2019-04-29T08:41:50.952Z,1025.63
2019-04-29T08:42:50.952Z,1025.8
2019-04-29T08:43:52.365Z,1026.17
2019-04-29T08:44:54.565Z,1026.17
2019-04-29T08:45:50.951Z,1026.16
2019-04-29T08:46:51.835Z,1026.95
2019-04-29T08:47:50.948Z,1027.19
2019-04-29T08:48:50.958Z,1027.11
2019-04-29T08:49:50.965Z,1027.15
2019-04-29T08:50:50.997Z,1027.56
2019-04-29T08:51:51.005Z,1028.15
2019-04-29T08:52:50.970Z,1028.4
2019-04-29T08:53:50.986Z,1029.85
2019-04-29T08:54:55.218Z,1030.52
2019-04-29T08:55:50.986Z,1031.33
2019-04-29T08:57:02.123Z,1032.41
2019-04-29T08:57:50.991Z,1033.67
2019-04-29T08:58:51.168Z,1034.48
2019-04-29T08:59:50.966Z,1035.51
2019-04-29T09:00:51.262Z,1037.18
2019-04-29T09:01:51.093Z,1037.91
2019-04-29T09:02:50.970Z,1038.6
2019-04-29T09:03:53.623Z,1039.13
2019-04-29T09:04:53.579Z,1040.04
2019-04-29T09:06:03.917Z,1040.93
2019-04-29T09:06:50.993Z,1041.63
2019-04-29T09:07:52.455Z,1042.28
2019-04-29T09:08:55.065Z,1043.06
2019-04-29T09:09:51.277Z,1044.09
2019-04-29T09:10:50.997Z,1044.85
2019-04-29T09:11:51.108Z,1045.4
2019-04-29T09:12:50.987Z,1046.58
2019-04-29T09:13:50.997Z,1046.76
2019-04-29T09:14:50.981Z,1047.55
2019-04-29T09:15:51.316Z,1048.17
2019-04-29T09:16:51.015Z,1049.03
2019-04-29T09:17:51.022Z,1049.92
2019-04-29T09:18:51.011Z,1050.56
2019-04-29T09:19:51.023Z,1051.41
2019-04-29T09:20:51.001Z,1052.12
2019-04-29T09:21:51.385Z,1052.72
2019-04-29T09:22:51.096Z,1053.06
2019-04-29T09:23:51.001Z,1053.87
2019-04-29T09:24:51.034Z,1054.73
2019-04-29T09:26:01.868Z,1055.69
2019-04-29T09:26:51.030Z,1057.05
2019-04-29T09:27:51.029Z,1058.01
2019-04-29T09:28:51.019Z,1058.55
2019-04-29T09:29:54.138Z,1059.85
2019-04-29T09:30:51.107Z,1060.36
2019-04-29T09:31:51.042Z,1062.24
2019-04-29T09:32:51.040Z,1063.49
2019-04-29T09:33:59.673Z,1064.28
2019-04-29T09:34:51.061Z,1064.84
2019-04-29T09:35:51.025Z,1065.09
2019-04-29T09:36:51.053Z,1065.51
2019-04-29T09:37:53.758Z,1066.02
2019-04-29T09:38:51.042Z,1066.76
2019-04-29T09:39:51.351Z,1067.56
2019-04-29T09:40:54.382Z,1068.37
2019-04-29T09:41:51.066Z,1068.75
2019-04-29T09:42:51.860Z,1068.62
2019-04-29T09:43:51.031Z,1068.52
2019-04-29T09:44:51.047Z,1068.27
2019-04-29T09:45:53.778Z,1067.81
2019-04-29T09:46:51.054Z,1067.13
2019-04-29T09:47:51.040Z,1066.45
2019-04-29T09:48:51.073Z,1065.72
2019-04-29T09:49:58.664Z,1065.02
2019-04-29T09:50:51.082Z,1063.98
2019-04-29T09:51:51.082Z,1063.26
2019-04-29T09:52:51.057Z,1062.99
2019-04-29T09:53:51.110Z,1062.58
2019-04-29T09:54:51.060Z,1062.8
2019-04-29T09:55:51.068Z,1062.19
2019-04-29T09:56:51.074Z,1061.51
2019-04-29T09:57:51.078Z,1061.56
2019-04-29T09:58:51.089Z,1061.08
2019-04-29T09:59:51.074Z,1061.05
2019-04-29T10:00:51.125Z,1061.15
2019-04-29T10:01:54.866Z,1060.84
2019-04-29T10:02:51.070Z,1060.54
2019-04-29T10:03:51.096Z,1060.56
2019-04-29T10:04:56.606Z,1060.74
2019-04-29T10:05:51.093Z,1060.79
2019-04-29T10:06:51.072Z,1060.91
2019-04-29T10:07:51.067Z,1061
2019-04-29T10:08:51.070Z,1060.53
2019-04-29T10:09:57.194Z,1060.24
2019-04-29T10:10:51.089Z,1059.97
2019-04-29T10:11:51.127Z,1059.55
2019-04-29T10:12:53.684Z,1058.78
2019-04-29T10:13:51.108Z,1057.88
2019-04-29T10:14:51.232Z,1057.02
2019-04-29T10:15:51.090Z,1056.63
2019-04-29T10:16:51.513Z,1056.04
2019-04-29T10:17:55.467Z,1055.86
2019-04-29T10:18:51.134Z,1055.52
2019-04-29T10:19:58.929Z,1054.67
2019-04-29T10:20:51.098Z,1053.5
2019-04-29T10:21:51.289Z,1053.13
2019-04-29T10:22:53.698Z,1052.74
2019-04-29T10:23:51.123Z,1052.59
2019-04-29T10:24:51.114Z,1052.47
2019-04-29T10:25:51.117Z,1051.94
2019-04-29T10:26:51.128Z,1051.54
2019-04-29T10:27:51.118Z,1051.28
2019-04-29T10:28:51.125Z,1051.84
2019-04-29T10:29:55.113Z,1052.4
2019-04-29T10:30:51.131Z,1052.42
2019-04-29T10:31:51.137Z,1052.73
2019-04-29T10:32:51.122Z,1053.57
2019-04-29T10:33:54.752Z,1054.6
2019-04-29T10:34:51.134Z,1055.61
2019-04-29T10:35:51.120Z,1056.54
2019-04-29T10:36:52.160Z,1056.85
2019-04-29T10:37:51.137Z,1057.18
2019-04-29T10:38:51.151Z,1057.52
2019-04-29T10:39:51.127Z,1057.22
2019-04-29T10:40:51.152Z,1056.89
2019-04-29T10:41:51.145Z,1057.02
2019-04-29T10:42:51.126Z,1056.66
2019-04-29T10:43:53.533Z,1056.22
2019-04-29T10:44:51.148Z,1055.86
2019-04-29T10:45:51.174Z,1055.69
2019-04-29T10:46:51.156Z,1055.67
2019-04-29T10:47:51.177Z,1056.04
2019-04-29T10:48:51.145Z,1056.38
2019-04-29T10:49:51.177Z,1056.62
2019-04-29T10:50:51.972Z,1057.29
2019-04-29T10:51:51.160Z,1058.06
2019-04-29T10:52:51.204Z,1058.07
2019-04-29T10:53:52.639Z,1057.81
2019-04-29T10:54:55.200Z,1057.69
2019-04-29T10:55:51.165Z,1057.91
2019-04-29T10:56:51.150Z,1058.52
2019-04-29T10:57:51.441Z,1059.55
2019-04-29T10:58:51.160Z,1060.71
2019-04-29T10:59:51.177Z,1061.3
2019-04-29T11:00:52.697Z,1061.85
2019-04-29T11:02:00.939Z,1062.42
2019-04-29T11:02:51.248Z,1062.61
2019-04-29T11:03:51.175Z,1063.06
2019-04-29T11:04:51.159Z,1062.67
2019-04-29T11:06:00.234Z,1062.54
2019-04-29T11:06:51.194Z,1062.82
2019-04-29T11:07:51.184Z,1062.86
2019-04-29T11:08:51.175Z,1062.57
2019-04-29T11:09:52.517Z,1062.76
2019-04-29T11:10:51.189Z,1062.64
2019-04-29T11:11:51.174Z,1062.5
2019-04-29T11:12:51.203Z,1062.54
2019-04-29T11:13:51.216Z,1062.65
2019-04-29T11:14:51.194Z,1062.18
2019-04-29T11:15:51.281Z,1062.15
2019-04-29T11:16:51.201Z,1062.6
2019-04-29T11:17:58.679Z,1062.87
2019-04-29T11:18:54.948Z,1063.05
2019-04-29T11:19:51.201Z,1062.86
2019-04-29T11:20:53.615Z,1062.44
2019-04-29T11:21:51.208Z,1062.05
2019-04-29T11:22:51.204Z,1061.93
2019-04-29T11:23:54.758Z,1061.72
2019-04-29T11:24:51.192Z,1061.14
2019-04-29T11:25:51.571Z,1060.97
2019-04-29T11:26:51.200Z,1060.78
2019-04-29T11:27:51.197Z,1060.21
2019-04-29T11:28:52.344Z,1059.57
2019-04-29T11:29:51.222Z,1059.22
2019-04-29T11:30:51.213Z,1059.21
2019-04-29T11:31:53.928Z,1059.58
2019-04-29T11:32:51.220Z,1059.81
2019-04-29T11:33:51.206Z,1060.15
2019-04-29T11:34:53.138Z,1060.51
2019-04-29T11:35:51.218Z,1060.54
2019-04-29T11:36:51.210Z,1060.77
2019-04-29T11:37:54.903Z,1060.72
2019-04-29T11:38:51.242Z,1060.35
2019-04-29T11:39:52.604Z,1059.75
2019-04-29T11:40:51.240Z,1059.35
2019-04-29T11:41:54.485Z,1059
2019-04-29T11:42:51.227Z,1059.16
2019-04-29T11:43:52.718Z,1059.17
2019-04-29T11:44:51.221Z,1059.14
2019-04-29T11:45:51.223Z,1059.23
2019-04-29T11:46:51.233Z,1058.9
2019-04-29T11:47:51.243Z,1059.02
2019-04-29T11:48:51.250Z,1058.88
2019-04-29T11:49:51.279Z,1058.78
2019-04-29T11:50:54.661Z,1058.06
2019-04-29T11:52:08.188Z,1057.82
2019-04-29T11:52:51.238Z,1057.86
2019-04-29T11:53:51.238Z,1057.16
2019-04-29T11:54:51.257Z,1056.6
2019-04-29T11:55:52.359Z,1056.25
2019-04-29T11:56:51.259Z,1055.79
2019-04-29T11:57:51.265Z,1054.98
2019-04-29T11:58:51.259Z,1054.09
2019-04-29T11:59:51.291Z,1053.8
2019-04-29T12:00:52.023Z,1053.23
2019-04-29T12:01:51.852Z,1052.46
2019-04-29T12:02:51.282Z,1051.19
2019-04-29T12:03:55.828Z,1050.38
2019-04-29T12:04:51.273Z,1049.55
2019-04-29T12:05:51.281Z,1048.54
2019-04-29T12:06:56.187Z,1046.87
2019-04-29T12:07:51.289Z,1045.15
2019-04-29T12:08:53.057Z,1043.52
2019-04-29T12:09:51.282Z,1042.49
2019-04-29T12:11:05.863Z,1041.28
2019-04-29T12:11:51.295Z,1039.94
2019-04-29T12:12:51.298Z,1038.94
2019-04-29T12:13:51.316Z,1037.78
2019-04-29T12:14:51.297Z,1036.5
2019-04-29T12:15:51.284Z,1035.43
2019-04-29T12:16:53.106Z,1033.56
2019-04-29T12:17:51.275Z,1031.12
2019-04-29T12:18:51.303Z,1028.5
2019-04-29T12:19:51.353Z,1026.3
2019-04-29T12:20:51.300Z,1024.28
2019-04-29T12:21:51.305Z,1022.7
2019-04-29T12:22:51.307Z,1021.41
2019-04-29T12:23:51.973Z,1019.74
2019-04-29T12:24:51.317Z,1017.96
2019-04-29T12:25:51.285Z,1016.08
2019-04-29T12:26:51.312Z,1014.58
2019-04-29T12:28:01.135Z,1013.57
2019-04-29T12:28:51.325Z,1012.16
2019-04-29T12:29:53.879Z,1010.79
2019-04-29T12:30:51.488Z,1010